Time;durP1;ratioP1;P1;durP2;ratioP2;P2;SDS_P1;SDS_P2;PMS_P1;PMS_P2;Temp;Humidity;BMP_temperature;BMP_pressure;BME280_temperature;BME280_humidity;BME280_pressure;Samples;Min_cycle;Max_cycle;Signal;HPM_P1;HPM_P2
2022/03/31 00:01:36;;;;;;;28.45;21.05;;;;;;;8.36;67.20;98932.31;4179456;28;20102;-57
2022/03/31 00:03:40;;;;;;;26.20;19.88;;;;;;;8.35;67.30;98936.63;4178287;28;20076;-57
2022/03/31 00:05:44;;;;;;;25.63;18.92;;;;;;;8.30;67.60;98933.16;4173648;28;20048;-57
2022/03/31 00:07:51;;;;;;;24.95;19.42;;;;;;;8.29;67.67;98938.34;4167627;28;20131;-57
2022/03/31 00:09:53;;;;;;;27.77;19.52;;;;;;;8.27;67.73;98935.75;4179569;28;20041;-58
2022/03/31 00:11:58;;;;;;;28.88;20.98;;;;;;;8.25;67.85;98924.56;4177968;28;20502;-57
2022/03/31 00:14:01;;;;;;;27.25;21.27;;;;;;;8.21;68.14;98928.00;4179384;28;20037;-56
2022/03/31 00:16:04;;;;;;;22.17;17.88;;;;;;;8.21;67.96;98930.59;4179163;28;20068;-57
2022/03/31 00:18:08;;;;;;;25.63;19.02;;;;;;;8.15;68.36;98928.03;4177282;28;20087;-57
2022/03/31 00:20:13;;;;;;;27.38;20.73;;;;;;;8.13;68.57;98932.31;4179256;28;20559;-57
2022/03/31 00:22:16;;;;;;;26.55;17.65;;;;;;;8.11;68.21;98939.25;4161812;28;20069;-57
2022/03/31 00:24:19;;;;;;;22.25;17.35;;;;;;;8.11;68.31;98934.06;4194316;28;20048;-57
2022/03/31 00:26:22;;;;;;;27.55;20.33;;;;;;;8.10;68.27;98934.91;4178254;28;20094;-57
2022/03/31 00:28:26;;;;;;;26.83;20.25;;;;;;;8.09;68.43;98930.59;4179559;28;20066;-57
2022/03/31 00:30:28;;;;;;;24.50;19.50;;;;;;;8.07;68.78;98924.56;4178763;28;20037;-57
2022/03/31 00:32:31;;;;;;;27.05;19.95;;;;;;;8.07;68.06;98921.97;4178837;28;20303;-58
2022/03/31 00:34:35;;;;;;;22.17;16.83;;;;;;;8.06;68.00;98917.66;4161294;28;20053;-57
2022/03/31 00:36:39;;;;;;;27.42;19.88;;;;;;;8.04;67.78;98925.44;4179314;28;20041;-60
2022/03/31 00:39:28;;;;;;;26.43;18.63;;;;;;;8.03;68.22;98923.69;4179392;28;20049;-58
2022/03/31 00:41:05;;;;;;;25.25;18.80;;;;;;;7.97;68.25;98924.59;4177372;28;20633;-57
2022/03/31 00:43:08;;;;;;;23.80;18.50;;;;;;;7.96;68.24;98927.16;4180279;28;20046;-57
2022/03/31 00:45:15;;;;;;;25.48;19.17;;;;;;;8.00;68.26;98928.88;4180920;28;20037;-58
2022/03/31 00:47:19;;;;;;;22.60;18.00;;;;;;;7.99;67.76;98919.41;4182917;28;20063;-57
2022/03/31 00:49:24;;;;;;;23.45;17.50;;;;;;;8.01;67.92;98920.25;4181662;28;20493;-57
2022/03/31 00:51:27;;;;;;;26.08;19.55;;;;;;;8.02;67.61;98916.81;4182144;28;20033;-57
2022/03/31 00:53:31;;;;;;;25.33;19.83;;;;;;;7.99;67.46;98912.50;4164451;28;20053;-57
2022/03/31 00:55:34;;;;;;;25.27;18.92;;;;;;;7.90;67.78;98917.69;4169526;28;20065;-57
2022/03/31 00:57:38;;;;;;;25.92;18.52;;;;;;;7.86;68.16;98913.38;4182591;28;20045;-57
2022/03/31 00:59:40;;;;;;;23.80;18.88;;;;;;;7.86;68.21;98913.38;4182148;28;20041;-57
2022/03/31 01:01:44;;;;;;;27.38;20.40;;;;;;;7.84;67.79;98908.19;4182580;28;20056;-58
2022/03/31 01:03:47;;;;;;;24.63;18.55;;;;;;;7.83;67.88;98903.00;4182116;28;20393;-57
2022/03/31 01:05:50;;;;;;;24.27;17.67;;;;;;;7.85;68.32;98906.44;4182008;28;20045;-57
2022/03/31 01:07:54;;;;;;;26.95;18.83;;;;;;;7.84;68.27;98902.13;4182532;28;20044;-57
2022/03/31 01:09:58;;;;;;;24.58;19.10;;;;;;;7.84;67.84;98903.00;4180861;28;20053;-58
2022/03/31 01:12:02;;;;;;;27.20;20.10;;;;;;;7.80;68.06;98900.44;4181422;28;20490;-58
2022/03/31 01:14:06;;;;;;;23.73;18.35;;;;;;;7.78;68.31;98896.97;4183066;28;20094;-58
2022/03/31 01:16:09;;;;;;;22.48;17.20;;;;;;;7.77;68.20;98895.22;4180792;28;20090;-57
2022/03/31 01:18:14;;;;;;;21.75;17.80;;;;;;;7.71;68.06;98882.31;4188970;28;20044;-57
2022/03/31 01:20:20;;;;;;;25.05;18.73;;;;;;;7.66;68.51;98888.31;4172325;28;20048;-57
2022/03/31 01:22:25;;;;;;;23.88;17.73;;;;;;;7.64;68.00;98876.28;4181346;28;20041;-57
2022/03/31 01:24:29;;;;;;;24.73;18.65;;;;;;;7.61;68.85;98874.56;4181690;28;20037;-57
2022/03/31 01:26:32;;;;;;;21.98;17.23;;;;;;;7.54;68.65;98872.81;4181521;28;20067;-56
2022/03/31 01:28:36;;;;;;;23.52;18.15;;;;;;;7.55;68.14;98869.38;4171656;28;20050;-57
2022/03/31 01:30:39;;;;;;;28.90;18.80;;;;;;;7.51;68.71;98868.50;4181159;28;20043;-56
2022/03/31 01:32:43;;;;;;;27.42;18.80;;;;;;;7.50;68.99;98868.50;4177088;28;20052;-57
2022/03/31 01:34:45;;;;;;;24.97;19.23;;;;;;;7.47;68.83;98868.50;4164844;28;20050;-57
2022/03/31 01:36:48;;;;;;;26.15;19.17;;;;;;;7.42;68.95;98868.50;4167505;28;20048;-57
2022/03/31 01:38:51;;;;;;;22.08;16.60;;;;;;;7.42;69.37;98871.09;4173300;28;20045;-57
2022/03/31 01:40:55;;;;;;;23.33;18.27;;;;;;;7.46;69.03;98869.34;4181062;28;20049;-57
2022/03/31 01:42:58;;;;;;;25.02;19.52;;;;;;;7.43;68.98;98864.19;4164888;28;20042;-57
2022/03/31 01:45:01;;;;;;;24.27;17.90;;;;;;;7.44;69.39;98866.75;4182413;28;20052;-57
2022/03/31 01:47:05;;;;;;;26.17;18.55;;;;;;;7.47;69.19;98868.50;4182046;28;20037;-57
2022/03/31 01:49:07;;;;;;;21.95;16.95;;;;;;;7.48;68.11;98867.66;4161887;28;20041;-57
2022/03/31 01:51:12;;;;;;;22.33;16.50;;;;;;;7.48;68.22;98860.75;4203361;28;20540;-57
2022/03/31 01:53:15;;;;;;;21.50;14.98;;;;;;;7.48;67.67;98857.31;4182030;28;20037;-57
2022/03/31 01:55:18;;;;;;;20.52;15.27;;;;;;;7.53;67.56;98860.75;4180996;28;20087;-57
2022/03/31 01:57:22;;;;;;;22.20;16.98;;;;;;;7.54;67.13;98862.47;4182372;28;20448;-57
2022/03/31 01:59:32;;;;;;;21.52;15.25;;;;;;;7.53;66.73;98854.72;4182621;28;20449;-57
2022/03/31 02:01:35;;;;;;;19.88;15.45;;;;;;;7.49;66.92;98853.84;4176047;28;20052;-56
2022/03/31 02:03:38;;;;;;;22.05;15.98;;;;;;;7.50;67.58;98853.88;4180000;28;20049;-57
2022/03/31 02:05:40;;;;;;;20.95;16.35;;;;;;;7.55;67.39;98853.88;4181040;28;20508;-56
2022/03/31 02:07:43;;;;;;;19.48;15.48;;;;;;;7.54;68.04;98854.72;4181757;28;20160;-56
2022/03/31 02:09:46;;;;;;;21.42;16.75;;;;;;;7.54;68.02;98851.28;4181275;28;20437;-57
2022/03/31 02:11:49;;;;;;;22.15;16.55;;;;;;;7.51;68.78;98842.63;4181385;28;20033;-57
2022/03/31 02:13:53;;;;;;;21.50;17.55;;;;;;;7.48;68.19;98847.81;4178891;28;20045;-57
2022/03/31 02:15:56;;;;;;;20.05;15.35;;;;;;;7.48;68.77;98842.66;4181775;28;20044;-57
2022/03/31 02:17:59;;;;;;;21.20;16.35;;;;;;;7.44;68.77;98840.06;4188052;28;20482;-56
2022/03/31 02:20:02;;;;;;;23.88;16.98;;;;;;;7.44;68.84;98842.66;4180946;28;20487;-56
2022/03/31 02:22:06;;;;;;;22.05;16.35;;;;;;;7.47;69.04;98840.91;4181329;28;20049;-57
2022/03/31 02:24:09;;;;;;;22.02;15.90;;;;;;;7.46;68.73;98839.22;4181043;28;20067;-57
2022/03/31 02:26:12;;;;;;;19.83;15.30;;;;;;;7.45;68.83;98839.22;4181372;28;20044;-57
2022/03/31 02:28:15;;;;;;;23.88;17.83;;;;;;;7.48;69.41;98839.22;4179184;28;20463;-57
2022/03/31 02:30:20;;;;;;;22.38;16.90;;;;;;;7.55;68.27;98840.06;4181038;28;20402;-56
2022/03/31 02:32:23;;;;;;;20.40;16.67;;;;;;;7.57;67.05;98841.78;4162443;28;20461;-56
2022/03/31 02:34:26;;;;;;;22.67;16.52;;;;;;;7.65;66.25;98834.91;4180895;28;20514;-56
2022/03/31 02:36:28;;;;;;;23.05;16.85;;;;;;;7.57;66.04;98838.34;4181608;28;20041;-57
2022/03/31 02:38:31;;;;;;;21.45;16.20;;;;;;;7.56;66.18;98834.88;4180833;28;20049;-56
2022/03/31 02:40:34;;;;;;;20.65;15.65;;;;;;;7.52;65.92;98828.00;4180049;28;20130;-57
2022/03/31 02:42:37;;;;;;;24.88;17.80;;;;;;;7.57;66.16;98828.00;4176645;28;20048;-57
2022/03/31 02:44:40;;;;;;;24.13;16.70;;;;;;;7.55;66.19;98830.59;4181520;28;20041;-57
2022/03/31 02:46:44;;;;;;;20.02;16.33;;;;;;;7.62;64.85;98829.72;4180165;28;20044;-55
2022/03/31 02:48:47;;;;;;;21.92;16.77;;;;;;;7.53;65.17;98823.69;4180801;28;20124;-56
2022/03/31 02:50:49;;;;;;;20.17;15.45;;;;;;;7.66;64.84;98826.25;4171233;28;20033;-57
2022/03/31 02:55:28;;;;;;;21.50;15.63;;;;;;;7.48;65.87;98821.97;4180024;28;20119;-60
2022/03/31 02:57:31;;;;;;;21.98;17.10;;;;;;;7.57;64.89;98826.28;4177942;28;20045;-57
2022/03/31 02:59:33;;;;;;;22.40;17.13;;;;;;;7.47;64.42;98829.72;4180657;28;20055;-57
2022/03/31 03:01:36;;;;;;;20.45;15.20;;;;;;;7.37;65.38;98823.66;4179663;28;20091;-57
2022/03/31 03:03:41;;;;;;;23.63;17.48;;;;;;;7.32;65.67;98818.50;4179841;28;20528;-57
2022/03/31 03:05:45;;;;;;;23.60;16.10;;;;;;;7.36;65.30;98815.91;4179634;28;20047;-57
2022/03/31 03:07:49;;;;;;;21.60;16.30;;;;;;;7.40;64.58;98815.06;4180274;28;20045;-57
2022/03/31 03:09:51;;;;;;;19.48;14.13;;;;;;;7.34;65.37;98810.75;4181321;28;20041;-57
2022/03/31 03:11:54;;;;;;;25.90;17.08;;;;;;;7.30;65.62;98807.31;4174929;28;20114;-56
2022/03/31 03:13:57;;;;;;;24.10;17.45;;;;;;;7.34;65.74;98814.22;4181158;28;20047;-57
2022/03/31 03:16:01;;;;;;;22.83;16.08;;;;;;;7.31;65.00;98814.19;4179572;28;20052;-57
2022/03/31 03:18:04;;;;;;;22.48;16.40;;;;;;;7.27;65.54;98803.84;4182104;28;20036;-57
2022/03/31 03:20:13;;;;;;;21.30;16.35;;;;;;;7.23;65.28;98804.69;4178947;28;20037;-57
2022/03/31 03:22:16;;;;;;;23.08;17.50;;;;;;;7.20;65.65;98805.59;4179392;28;20072;-57
2022/03/31 03:24:18;;;;;;;20.65;15.25;;;;;;;7.28;65.22;98803.84;4180943;28;20099;-57
2022/03/31 03:26:21;;;;;;;21.23;16.83;;;;;;;7.36;64.85;98806.47;4180251;28;20048;-57
2022/03/31 03:28:26;;;;;;;23.90;17.48;;;;;;;7.27;65.08;98794.38;4180065;28;20055;-56
2022/03/31 03:30:28;;;;;;;22.65;17.45;;;;;;;7.22;65.08;98801.25;4179936;28;20041;-55
2022/03/31 03:32:31;;;;;;;24.17;17.27;;;;;;;7.20;65.32;98789.19;4161686;28;20079;-59
2022/03/31 03:34:34;;;;;;;21.55;16.73;;;;;;;7.22;65.10;98793.50;4180807;28;20041;-57
2022/03/31 03:36:38;;;;;;;26.00;17.58;;;;;;;7.30;65.42;98781.47;4179660;28;20048;-56
2022/03/31 03:38:42;;;;;;;22.75;17.10;;;;;;;7.38;64.99;98780.59;4180407;28;20048;-57
2022/03/31 03:40:45;;;;;;;24.53;18.27;;;;;;;7.35;64.88;98784.03;4185794;28;20123;-56
2022/03/31 03:42:47;;;;;;;20.98;16.63;;;;;;;7.33;65.32;98778.88;4178158;28;20450;-57
2022/03/31 03:44:50;;;;;;;23.05;16.20;;;;;;;7.23;65.32;98782.31;4179495;28;20037;-57
2022/03/31 03:46:53;;;;;;;23.67;16.83;;;;;;;7.18;65.05;98778.84;4180723;28;20045;-57
2022/03/31 03:48:56;;;;;;;22.83;17.15;;;;;;;7.18;65.36;98781.44;4179888;28;20540;-57
2022/03/31 03:50:59;;;;;;;24.67;16.50;;;;;;;7.17;65.34;98779.75;4165249;28;20493;-57
2022/03/31 03:53:04;;;;;;;20.67;15.48;;;;;;;7.20;65.97;98776.28;4179664;28;20041;-56
2022/03/31 03:55:07;;;;;;;22.92;16.42;;;;;;;7.33;65.11;98771.13;4179491;28;20041;-56
2022/03/31 03:57:10;;;;;;;21.85;16.45;;;;;;;7.28;64.91;98777.16;4179715;28;20041;-57
2022/03/31 03:59:13;;;;;;;21.98;17.02;;;;;;;7.24;65.50;98771.13;4179426;28;20498;-57
2022/03/31 04:01:19;;;;;;;;;;;;;;;7.07;65.85;98770.25;4171423;28;20040;-57
2022/03/31 04:03:22;;;;;;;21.40;15.23;;;;;;;7.12;66.46;98766.78;4186800;28;20023;-57
2022/03/31 04:05:26;;;;;;;24.45;17.48;;;;;;;7.16;66.04;98765.09;4179571;28;20033;-56
2022/03/31 04:07:28;;;;;;;20.95;15.98;;;;;;;7.14;66.00;98764.19;4169703;28;20473;-57
2022/03/31 04:09:32;;;;;;;22.35;15.75;;;;;;;7.10;66.26;98757.34;4180428;28;20044;-57
2022/03/31 04:11:35;;;;;;;20.55;15.23;;;;;;;7.08;66.46;98762.50;4179099;28;20045;-57
2022/03/31 04:13:38;;;;;;;22.40;17.08;;;;;;;7.09;67.10;98760.78;4180422;28;20045;-57
2022/03/31 04:15:41;;;;;;;21.90;16.45;;;;;;;7.08;67.13;98759.03;4179906;28;20049;-55
2022/03/31 04:17:44;;;;;;;22.30;16.40;;;;;;;7.07;67.05;98760.78;4181186;28;20516;-57
2022/03/31 04:19:47;;;;;;;24.65;16.80;;;;;;;7.07;67.12;98754.75;4180370;28;20098;-56
2022/03/31 04:21:50;;;;;;;19.70;15.38;;;;;;;7.09;67.33;98755.59;4177727;28;20533;-55
2022/03/31 04:23:53;;;;;;;25.13;15.68;;;;;;;7.07;67.46;98749.59;4184133;28;20128;-55
2022/03/31 04:25:57;;;;;;;22.55;15.52;;;;;;;7.05;67.68;98748.69;4180122;28;20091;-57
2022/03/31 04:27:59;;;;;;;19.40;15.47;;;;;;;7.04;67.73;98741.81;4176339;28;20041;-57
2022/03/31 04:30:03;;;;;;;23.70;17.45;;;;;;;7.06;68.14;98750.44;4184769;28;20771;-55
2022/03/31 04:32:07;;;;;;;21.15;16.25;;;;;;;7.07;68.09;98752.16;4182608;28;20103;-56
2022/03/31 04:34:11;;;;;;;22.98;17.00;;;;;;;7.05;68.36;98753.88;4180371;28;20383;-56
2022/03/31 04:36:15;;;;;;;24.25;17.25;;;;;;;7.04;68.09;98749.56;4185573;28;20102;-57
2022/03/31 04:38:17;;;;;;;24.63;18.98;;;;;;;7.02;68.19;98759.88;4183585;28;20033;-57
2022/03/31 04:40:21;;;;;;;24.23;17.63;;;;;;;7.00;68.93;98751.28;4176753;28;20490;-55
2022/03/31 04:42:25;;;;;;;26.98;19.40;;;;;;;6.99;69.16;98755.59;4178443;28;20037;-57
2022/03/31 04:44:28;;;;;;;25.35;19.63;;;;;;;6.99;69.19;98758.19;4174309;28;20040;-57
2022/03/31 04:46:33;;;;;;;29.83;21.95;;;;;;;7.04;69.11;98759.88;4177987;28;20106;-56
2022/03/31 04:48:35;;;;;;;26.83;20.52;;;;;;;7.04;69.09;98767.63;4177150;28;20391;-55
2022/03/31 04:50:38;;;;;;;25.27;19.45;;;;;;;6.95;69.73;98760.75;4177896;28;20418;-57
2022/03/31 04:52:42;;;;;;;29.15;21.25;;;;;;;6.92;69.86;98765.91;4161686;28;20045;-56
2022/03/31 04:54:45;;;;;;;25.25;20.45;;;;;;;6.88;69.87;98766.75;4177854;28;20128;-57
2022/03/31 04:56:47;;;;;;;24.15;18.33;;;;;;;6.94;69.69;98772.81;4177049;28;20059;-60
2022/03/31 04:58:52;;;;;;;26.10;20.13;;;;;;;6.96;70.07;98768.50;4179109;28;20045;-57
2022/03/31 05:00:55;;;;;;;28.17;19.35;;;;;;;6.96;70.08;98767.63;4176798;28;20045;-56
2022/03/31 05:02:59;;;;;;;25.90;18.40;;;;;;;6.89;70.33;98773.66;4179219;28;20125;-57
2022/03/31 05:05:02;;;;;;;24.70;18.20;;;;;;;6.85;70.51;98777.97;4177245;28;20076;-57
2022/03/31 05:07:05;;;;;;;27.90;20.60;;;;;;;6.72;70.53;98771.06;4177144;28;20039;-56
2022/03/31 05:09:08;;;;;;;28.27;20.90;;;;;;;6.68;70.85;98770.16;4159408;28;20453;-57
2022/03/31 05:11:11;;;;;;;29.27;19.95;;;;;;;6.68;70.85;98769.31;4179149;28;20037;-56
2022/03/31 05:13:13;;;;;;;24.75;18.08;;;;;;;6.70;70.73;98765.00;4160301;28;20271;-57
2022/03/31 05:15:18;;;;;;;25.88;18.85;;;;;;;6.63;70.85;98767.56;4160608;28;20057;-57
2022/03/31 05:17:20;;;;;;;23.20;18.08;;;;;;;6.56;70.49;98763.25;4176688;28;20052;-57
2022/03/31 05:19:23;;;;;;;26.08;19.60;;;;;;;6.56;70.84;98760.69;4175504;28;20065;-57
2022/03/31 05:21:26;;;;;;;27.10;20.33;;;;;;;6.59;70.97;98765.84;4179214;28;20044;-57
2022/03/31 05:23:29;;;;;;;23.17;17.95;;;;;;;6.68;70.73;98759.00;4178120;28;20513;-57
2022/03/31 05:25:32;;;;;;;23.17;17.85;;;;;;;6.74;70.66;98766.75;4178708;28;20045;-57
2022/03/31 05:27:40;;;;;;;25.23;18.92;;;;;;;6.78;70.01;98771.06;4179025;28;20044;-57
2022/03/31 05:29:43;;;;;;;24.67;18.40;;;;;;;6.71;70.17;98775.34;4179558;28;20115;-57
2022/03/31 05:31:47;;;;;;;25.08;18.85;;;;;;;6.71;70.23;98766.75;4182037;28;20040;-55
2022/03/31 05:33:50;;;;;;;26.92;20.20;;;;;;;6.74;70.45;98772.75;4177679;28;20059;-56
2022/03/31 05:35:53;;;;;;;24.30;18.10;;;;;;;6.78;70.20;98763.31;4181567;28;20055;-56
2022/03/31 05:37:56;;;;;;;27.55;19.08;;;;;;;6.83;69.97;98761.59;4180199;28;20577;-57
2022/03/31 05:40:01;;;;;;;32.03;20.73;;;;;;;6.89;69.99;98759.03;4165052;28;20426;-57
2022/03/31 05:42:04;;;;;;;26.42;18.67;;;;;;;6.94;70.30;98759.88;4194173;28;20080;-56
2022/03/31 05:44:07;;;;;;;29.52;20.83;;;;;;;6.99;69.59;98765.94;4179370;28;20041;-57
2022/03/31 05:46:10;;;;;;;26.45;20.30;;;;;;;7.04;69.63;98765.06;4181206;28;20047;-56
2022/03/31 05:48:14;;;;;;;25.13;17.27;;;;;;;7.10;70.12;98768.53;4181739;28;20037;-57
2022/03/31 05:50:17;;;;;;;27.10;19.02;;;;;;;7.13;69.60;98762.50;4180856;28;20045;-57
2022/03/31 05:52:22;;;;;;;26.52;17.85;;;;;;;7.07;69.94;98770.25;4163249;28;20076;-60
2022/03/31 05:54:25;;;;;;;27.00;17.02;;;;;;;7.06;69.43;98765.94;4181064;28;20037;-59
2022/03/31 05:56:28;;;;;;;25.10;17.40;;;;;;;7.08;69.21;98765.09;4180118;28;20033;-57
2022/03/31 05:58:31;;;;;;;26.55;17.95;;;;;;;7.09;69.14;98768.53;4181222;28;20428;-57
2022/03/31 06:00:34;;;;;;;25.02;18.13;;;;;;;7.13;69.03;98765.94;4181569;28;20049;-57
2022/03/31 06:02:37;;;;;;;27.33;18.60;;;;;;;7.11;69.03;98765.09;4179857;28;20041;-57
2022/03/31 06:04:52;;;;;;;25.70;18.70;;;;;;;7.03;68.57;98763.34;4180686;28;20531;-57
2022/03/31 06:06:55;;;;;;;24.55;16.70;;;;;;;7.05;69.17;98770.22;4179063;28;20421;-57
2022/03/31 06:08:59;;;;;;;26.27;17.27;;;;;;;7.08;69.03;98769.38;4181075;28;20059;-57
2022/03/31 06:11:01;;;;;;;23.20;17.38;;;;;;;7.07;68.98;98770.25;4179338;28;20045;-57
2022/03/31 06:13:04;;;;;;;24.92;18.75;;;;;;;7.10;69.10;98771.09;4177392;28;20041;-57
2022/03/31 06:15:08;;;;;;;28.88;18.02;;;;;;;7.13;68.99;98762.50;4180636;28;20037;-57
2022/03/31 06:17:11;;;;;;;21.70;16.00;;;;;;;7.15;69.06;98771.09;4190102;28;20036;-57
2022/03/31 06:19:14;;;;;;;29.15;20.48;;;;;;;7.21;69.04;98768.50;4182361;28;20041;-57
2022/03/31 06:21:18;;;;;;;25.08;18.42;;;;;;;7.26;68.53;98764.22;4180659;28;20070;-57
2022/03/31 06:23:22;;;;;;;21.77;16.95;;;;;;;7.27;68.79;98765.06;4168065;28;20041;-57
2022/03/31 06:25:25;;;;;;;23.95;17.83;;;;;;;7.28;68.75;98761.63;4171351;28;20037;-57
2022/03/31 06:27:28;;;;;;;22.98;17.15;;;;;;;7.02;68.34;98765.06;4179846;28;20041;-57
2022/03/31 06:29:30;;;;;;;27.85;19.13;;;;;;;7.06;68.95;98768.53;4180897;28;20040;-57
2022/03/31 06:31:33;;;;;;;23.17;17.45;;;;;;;7.10;68.94;98767.66;4173956;28;20132;-57
2022/03/31 06:33:39;;;;;;;24.73;17.42;;;;;;;7.14;68.47;98766.78;4196373;28;20079;-57
2022/03/31 06:35:41;;;;;;;23.00;17.45;;;;;;;7.30;68.44;98770.25;4174741;28;20041;-57
2022/03/31 06:37:46;;;;;;;21.55;16.48;;;;;;;7.43;68.36;98771.09;4173833;28;20067;-57
2022/03/31 06:39:49;;;;;;;21.10;15.88;;;;;;;7.36;68.13;98762.50;4171143;28;20047;-57
2022/03/31 06:41:52;;;;;;;23.30;17.52;;;;;;;7.39;67.83;98759.03;4179869;28;20041;-58
2022/03/31 06:43:55;;;;;;;23.65;17.13;;;;;;;7.37;67.67;98761.63;4161903;28;20041;-57
2022/03/31 06:45:58;;;;;;;22.17;16.75;;;;;;;7.18;67.97;98770.25;4165062;28;20083;-57
2022/03/31 06:48:04;;;;;;;24.27;19.30;;;;;;;7.19;68.07;98766.81;4157324;28;20144;-57
2022/03/31 06:50:07;;;;;;;22.17;16.48;;;;;;;7.06;68.29;98763.34;4175768;28;20562;-57
2022/03/31 06:52:10;;;;;;;26.85;16.95;;;;;;;6.96;68.86;98760.75;4172507;28;20045;-56
2022/03/31 06:54:14;;;;;;;22.23;17.08;;;;;;;6.91;68.46;98764.22;4176404;28;20038;-57
2022/03/31 06:56:18;;;;;;;27.15;20.67;;;;;;;6.87;68.41;98755.56;4180145;28;20047;-57
2022/03/31 06:58:25;;;;;;;21.38;16.95;;;;;;;6.90;68.53;98760.75;4181541;28;20053;-56
2022/03/31 07:00:29;;;;;;;23.08;18.42;;;;;;;7.03;68.06;98758.19;4171091;28;20072;-57
2022/03/31 07:02:32;;;;;;;24.20;18.05;;;;;;;6.98;68.27;98758.19;4181319;28;20067;-57
2022/03/31 07:04:35;;;;;;;22.42;17.80;;;;;;;7.00;68.04;98756.47;4177669;28;20147;-57
2022/03/31 07:06:38;;;;;;;22.88;16.58;;;;;;;7.11;68.12;98752.16;4180916;28;20044;-57
2022/03/31 07:08:40;;;;;;;24.90;18.73;;;;;;;7.15;67.85;98748.72;4167292;28;20045;-57
2022/03/31 07:10:45;;;;;;;24.08;17.60;;;;;;;7.31;68.16;98753.88;4177812;28;20045;-58
2022/03/31 07:12:47;;;;;;;22.95;17.08;;;;;;;7.40;67.75;98750.44;4162508;28;20056;-55
2022/03/31 07:14:50;;;;;;;24.08;16.88;;;;;;;7.46;66.56;98740.06;4179248;28;20087;-56
2022/03/31 07:16:53;;;;;;;22.35;16.20;;;;;;;7.40;66.79;98747.84;4180713;28;20502;-56
2022/03/31 07:18:56;;;;;;;22.60;16.50;;;;;;;7.47;67.03;98749.56;4176125;28;20135;-58
2022/03/31 07:20:59;;;;;;;23.08;18.23;;;;;;;7.69;66.51;98743.50;4171597;28;20049;-56
2022/03/31 07:23:02;;;;;;;23.15;17.95;;;;;;;7.66;66.12;98746.06;4179831;28;20071;-56
2022/03/31 07:25:06;;;;;;;22.63;17.05;;;;;;;7.66;66.58;98743.50;4171334;28;20506;-55
2022/03/31 07:27:10;;;;;;;23.38;16.73;;;;;;;7.72;66.54;98746.94;4168682;28;20045;-55
2022/03/31 07:29:13;;;;;;;23.95;17.50;;;;;;;7.74;66.78;98751.25;4178645;28;20120;-56
2022/03/31 07:31:16;;;;;;;25.02;18.90;;;;;;;7.90;65.54;98746.91;4176896;28;20517;-56
2022/03/31 07:33:20;;;;;;;24.00;17.80;;;;;;;7.78;65.70;98739.16;4180579;28;20052;-57
2022/03/31 07:35:25;;;;;;;22.67;15.95;;;;;;;7.74;66.61;98745.19;4180462;28;20041;-57
2022/03/31 07:37:28;;;;;;;25.33;18.83;;;;;;;7.71;65.66;98740.03;4172868;28;20094;-57
2022/03/31 07:39:31;;;;;;;25.42;19.30;;;;;;;7.78;65.36;98741.75;4173115;28;20044;-57
2022/03/31 07:41:34;;;;;;;22.35;17.15;;;;;;;7.73;65.97;98740.91;4159724;28;20605;-56
2022/03/31 07:43:38;;;;;;;31.13;18.00;;;;;;;7.73;65.81;98744.34;4186048;28;20549;-57
2022/03/31 07:45:41;;;;;;;21.38;16.05;;;;;;;7.71;65.97;98740.03;4172627;28;20052;-56
2022/03/31 07:47:44;;;;;;;22.00;17.17;;;;;;;7.69;66.18;98742.63;4175532;28;20047;-57
2022/03/31 07:49:49;;;;;;;25.08;18.95;;;;;;;7.72;66.09;98736.59;4174173;28;20390;-61
2022/03/31 07:51:52;;;;;;;22.50;18.20;;;;;;;7.74;66.11;98733.16;4182264;28;20037;-57
2022/03/31 07:53:55;;;;;;;26.67;19.13;;;;;;;7.83;65.40;98737.44;4180637;28;20056;-57
2022/03/31 07:55:57;;;;;;;26.48;17.58;;;;;;;7.79;65.92;98738.31;4178853;28;20043;-57
2022/03/31 07:58:00;;;;;;;23.85;16.30;;;;;;;7.82;65.88;98738.28;4178359;28;20052;-57
2022/03/31 08:00:07;;;;;;;26.98;19.48;;;;;;;7.90;65.62;98738.28;4179424;28;20132;-57
2022/03/31 08:02:16;;;;;;;25.17;17.95;;;;;;;7.85;65.80;98739.13;4161686;28;20413;-57
2022/03/31 08:04:20;;;;;;;25.70;17.58;;;;;;;7.81;65.50;98736.56;4178676;28;20128;-57
2022/03/31 08:06:24;;;;;;;24.02;19.05;;;;;;;7.75;65.36;98732.25;4173473;28;20120;-57
2022/03/31 08:08:28;;;;;;;24.23;16.38;;;;;;;7.72;65.73;98728.84;4159095;28;20140;-57
2022/03/31 08:10:31;;;;;;;24.13;18.00;;;;;;;7.63;65.79;98733.16;4180139;28;20047;-57
2022/03/31 08:12:35;;;;;;;26.52;18.40;;;;;;;7.65;66.46;98723.69;4156824;28;20042;-57
2022/03/31 08:14:38;;;;;;;26.58;19.33;;;;;;;7.65;66.35;98730.56;4176221;28;20049;-57
2022/03/31 08:16:42;;;;;;;24.30;18.40;;;;;;;7.69;66.26;98732.28;4175413;28;20045;-57
2022/03/31 08:18:45;;;;;;;;;;;;;;;7.58;66.53;98731.44;4177695;28;20045;-57
2022/03/31 08:20:48;;;;;;;26.15;19.02;;;;;;;7.63;66.82;98743.50;4177744;28;19982;-57
2022/03/31 08:22:51;;;;;;;27.02;21.73;;;;;;;7.72;66.22;98734.00;4179733;28;20047;-57
2022/03/31 08:24:54;;;;;;;26.38;17.73;;;;;;;7.77;66.20;98734.84;4158618;28;20049;-57
2022/03/31 08:26:59;;;;;;;24.40;19.23;;;;;;;7.80;65.69;98734.88;4158785;28;20053;-57
2022/03/31 08:29:01;;;;;;;27.02;20.95;;;;;;;7.78;65.31;98737.47;4178930;28;20043;-56
2022/03/31 08:31:04;;;;;;;26.45;19.17;;;;;;;7.86;65.74;98729.66;4176187;28;20299;-57
2022/03/31 08:33:09;;;;;;;27.83;20.88;;;;;;;7.83;65.17;98738.28;4174151;28;20383;-57
2022/03/31 08:35:17;;;;;;;26.88;21.45;;;;;;;7.78;65.47;98734.00;4174774;28;20056;-57
2022/03/31 08:37:19;;;;;;;29.35;21.80;;;;;;;7.82;65.36;98736.56;4160509;28;20535;-57
2022/03/31 08:39:22;;;;;;;24.65;18.83;;;;;;;7.96;64.91;98731.38;4176157;28;20120;-57
2022/03/31 08:41:28;;;;;;;29.33;21.08;;;;;;;7.97;65.52;98733.09;4174132;28;20050;-57
2022/03/31 08:43:31;;;;;;;27.20;21.08;;;;;;;8.06;65.35;98733.91;4178065;28;20525;-57
2022/03/31 08:45:41;;;;;;;28.08;23.00;;;;;;;8.14;64.78;98735.59;4178132;28;20045;-56
2022/03/31 08:47:45;;;;;;;31.42;20.30;;;;;;;8.18;65.01;98741.66;4179278;28;20064;-57
2022/03/31 08:49:55;;;;;;;25.58;19.80;;;;;;;8.23;65.10;98731.25;4160057;28;20048;-57
2022/03/31 08:51:58;;;;;;;27.85;22.30;;;;;;;8.24;65.01;98728.66;4178279;28;20037;-57
2022/03/31 08:54:01;;;;;;;26.17;20.52;;;;;;;8.24;64.15;98733.00;4159596;28;20045;-57
2022/03/31 08:56:05;;;;;;;28.85;21.42;;;;;;;8.18;63.91;98731.28;4175549;28;20052;-57
2022/03/31 08:58:09;;;;;;;29.75;21.38;;;;;;;8.15;64.39;98734.75;4173784;28;20486;-57
2022/03/31 09:00:14;;;;;;;28.23;21.23;;;;;;;8.21;64.45;98731.28;4177662;28;20040;-57
2022/03/31 09:02:24;;;;;;;28.60;21.23;;;;;;;8.16;64.64;98728.72;4179874;28;20060;-56
2022/03/31 09:04:28;;;;;;;30.95;23.10;;;;;;;8.16;64.60;98730.41;4164888;28;20057;-57
2022/03/31 09:06:32;;;;;;;28.55;21.63;;;;;;;8.19;64.34;98733.88;4179445;28;20046;-56
2022/03/31 09:08:35;;;;;;;31.70;23.10;;;;;;;8.02;65.11;98728.75;4177669;28;20041;-57
2022/03/31 09:10:41;;;;;;;30.75;24.95;;;;;;;8.11;65.04;98734.75;4177752;28;20053;-55
2022/03/31 09:12:44;;;;;;;27.60;19.95;;;;;;;8.13;64.64;98730.44;4161532;28;20071;-57
2022/03/31 09:15:12;;;;;;;36.97;24.63;;;;;;;8.13;64.52;98731.31;4178974;28;20044;-57
2022/03/31 09:17:18;;;;;;;26.15;20.38;;;;;;;8.10;64.55;98728.72;4179157;28;20049;-57
2022/03/31 09:19:22;;;;;;;32.45;24.98;;;;;;;8.20;64.57;98729.53;4177981;28;20041;-57
2022/03/31 09:21:25;;;;;;;33.15;24.52;;;;;;;8.23;63.97;98721.75;4181563;28;20513;-57
2022/03/31 09:23:32;;;;;;;30.08;23.88;;;;;;;8.15;63.99;98720.94;4183124;28;20473;-59
2022/03/31 09:25:38;;;;;;;31.63;24.05;;;;;;;8.30;64.17;98725.19;4166272;28;20561;-57
2022/03/31 09:27:41;;;;;;;32.65;24.42;;;;;;;8.17;64.46;98726.97;4182850;28;20095;-58
2022/03/31 09:29:44;;;;;;;30.35;22.95;;;;;;;8.09;64.86;98726.13;4182964;28;20071;-55
2022/03/31 09:31:47;;;;;;;33.90;23.80;;;;;;;8.04;64.98;98729.63;4182840;28;20048;-57
2022/03/31 09:33:55;;;;;;;33.47;25.42;;;;;;;8.09;65.17;98726.13;4178376;28;20033;-57
2022/03/31 09:36:04;;;;;;;29.60;22.67;;;;;;;8.12;65.69;98721.81;4182569;28;20068;-56
2022/03/31 09:38:14;;;;;;;29.02;22.08;;;;;;;8.01;65.28;98714.06;4178456;28;20553;-56
2022/03/31 09:40:20;;;;;;;31.13;23.60;;;;;;;7.95;65.53;98724.44;4180994;28;20041;-57